Latest Weather Observations for Bushy Park

IDT60801

Issued at 8:32 pm EDT Thursday 8 December 2016 (issued every 30 minutes, with the page automatically refreshed every 10 minutes)

About weather observations | Map of weather stations | Latest weather observations for TAS | Other Formats
Station Details ID: 095003 Name: BUSHY PARK (BUSHY PARK ESTATES) Lat: -42.71 Lon: 146.90 Height: 27.0 m
Data from the previous 72 hours. | See also: Recent months at Bushy Park
Date/Time
EDT
Temp
°C
App
Temp
°C
Dew
Point
°C
Rel
Hum
%
Delta-T
°C
Wind Press
QNH
hPa
Press
MSL
hPa
Rain since
9am
mm
Dir  Spd
km/h
Gust
km/h
Spd
kts
Gust
kts
08/08:30pm 15.4 11.5 7.2 58 4.0 W 17 28 9 15 - - 1.8
08/08:00pm 16.4 12.0 6.5 52 4.9 WNW 19 33 10 18 - - 1.8
08/07:34pm 16.8 10.0 6.8 51 4.9 NNW 32 50 17 27 - - 1.8
08/07:30pm 16.8 9.8 6.8 51 4.9 NNW 33 50 18 27 - - 1.8
08/07:05pm 17.4 10.0 6.8 49 5.3 NNW 35 59 19 32 - - 1.8
08/07:00pm 17.6 9.7 6.1 47 5.6 NNW 37 54 20 29 - - 1.8
08/06:30pm 17.7 8.9 5.7 45 5.8 NNW 41 63 22 34 - - 1.8
08/06:00pm 18.7 9.8 5.2 41 6.6 N 41 63 22 34 - - 1.8
08/05:30pm 19.7 11.1 4.8 37 7.2 N 39 57 21 31 - - 1.8
08/05:00pm 19.8 11.1 6.0 40 6.9 N 41 65 22 35 - - 1.8
08/04:30pm 20.3 9.7 5.1 37 7.4 N 50 78 27 42 - - 1.8
08/04:00pm 22.2 10.1 4.1 30 8.8 N 57 91 31 49 - - 1.8
08/03:30pm 23.1 12.1 3.1 27 9.6 N 50 74 27 40 - - 1.8
08/03:03pm 23.6 14.1 4.9 29 9.3 N 44 63 24 34 - - 1.8
08/03:00pm 23.7 16.0 5.4 30 9.2 N 35 67 19 36 - - 1.8
08/02:57pm 23.7 15.8 6.0 32 9.0 N 37 67 20 36 - - 1.8
08/02:38pm 23.1 11.2 5.3 31 8.9 N 57 76 31 41 - - 1.8
08/02:30pm 24.2 12.6 9.9 40 7.8 N 61 72 33 39 - - 1.8
08/02:24pm 23.5 18.0 12.6 50 6.2 N 33 72 18 39 - - 1.8
08/02:22pm 23.1 19.2 14.3 57 5.2 N 28 54 15 29 - - 1.8
08/02:00pm 19.6 19.3 14.5 72 3.0 ESE 9 15 5 8 - - 1.6
08/01:30pm 18.1 19.0 13.9 76 2.4 E 2 7 1 4 - - 1.6
08/01:00pm 17.8 17.7 13.8 77 2.3 S 7 7 4 4 - - 1.6
08/12:30pm 17.5 17.1 14.2 81 1.9 SE 9 11 5 6 - - 1.6
08/12:00pm 14.7 14.3 13.1 90 0.9 SSE 7 11 4 6 - - 1.6
08/11:30am 13.7 14.0 12.2 91 0.8 NNE 2 7 1 4 - - 1.6
08/11:00am 13.3 13.2 12.2 93 0.6 NE 4 7 2 4 - - 1.6
08/10:30am 12.8 11.7 11.9 94 0.5 WSW 9 19 5 10 - - 1.2
08/10:00am 12.5 11.2 11.2 92 0.7 SSW 9 13 5 7 - - 0.4
08/09:30am 12.3 11.0 11.4 94 0.5 ESE 9 13 5 7 - - 0.0
08/09:00am 11.6 9.8 10.8 95 0.4 WSW 11 17 6 9 - - 2.6
08/08:30am 11.0 9.5 10.4 96 0.3 SW 9 13 5 7 - - 2.6
08/08:00am 10.4 9.6 9.6 95 0.4 E 4 9 2 5 - - 2.6
08/07:30am 10.1 10.0 9.5 96 0.3 CALM 0 0 0 0 - - 2.0
08/07:00am 9.7 8.1 8.9 95 0.4 SW 7 9 4 5 - - 1.2
08/06:30am 9.6 9.3 8.8 95 0.4 CALM 0 0 0 0 - - 1.0
08/06:00am 9.5 8.5 8.9 96 0.3 SSW 4 7 2 4 - - 1.0
08/05:30am 9.4 8.8 8.8 96 0.3 NNE 2 7 1 4 - - 0.0
08/05:00am 9.2 7.5 8.4 95 0.4 NE 7 13 4 7 - - 0.0
08/04:30am 8.8 7.0 7.8 93 0.5 WNW 7 9 4 5 - - 0.0
08/04:00am 8.1 7.5 7.3 95 0.4 CALM 0 0 0 0 - - 0.0
08/03:30am 7.8 5.9 6.9 94 0.4 SSW 6 7 3 4 - - 0.0
08/03:00am 8.4 7.0 7.3 93 0.5 NNW 4 7 2 4 - - 0.0
08/02:30am 8.6 7.7 7.6 93 0.5 N 2 7 1 4 - - 0.0
08/02:00am 8.8 7.9 7.8 93 0.5 E 2 7 1 4 - - 0.0
08/01:30am 9.3 7.5 7.9 91 0.7 WSW 7 11 4 6 - - 0.0
08/01:00am 10.2 9.2 8.8 91 0.7 NNW 4 7 2 4 - - 0.0
08/12:30am 11.0 9.1 9.2 89 0.9 SSW 9 11 5 6 - - 0.0
08/12:00am 11.3 9.5 9.3 87 1.0 SSE 9 13 5 7 - - 0.0
 
Date/Time
EDT
Temp
°C
App
Temp
°C
Dew
Point
°C
Rel
Hum
%
Delta-T
°C
Wind Press
QNH
hPa
Press
MSL
hPa
Rain since
9am
mm
Dir  Spd
km/h
Gust
km/h
Spd
kts
Gust
kts
07/11:30pm 12.3 11.2 10.0 86 1.2 N 6 9 3 5 - - 0.0
07/11:00pm 13.4 12.1 9.9 79 1.8 W 7 11 4 6 - - 0.0
07/10:30pm 13.8 12.3 9.3 74 2.3 NE 7 11 4 6 - - 0.0
07/10:00pm 13.8 12.5 10.0 78 2.0 N 7 9 4 5 - - 0.0
07/09:30pm 14.9 13.5 9.7 71 2.7 W 7 11 4 6 - - 0.0
07/09:00pm 16.6 14.2 8.7 59 4.1 W 11 17 6 9 - - 0.0
07/08:30pm 17.7 15.2 8.4 54 4.8 WSW 11 19 6 10 - - 0.0
07/08:00pm 19.1 15.8 8.1 49 5.7 NW 15 26 8 14 - - 0.0
07/07:30pm 20.0 16.7 7.9 45 6.2 NNW 15 20 8 11 - - 0.0
07/07:00pm 21.0 16.1 6.8 39 7.2 NNW 22 35 12 19 - - 0.0
07/06:30pm 21.3 16.5 7.2 40 7.2 NNW 22 30 12 16 - - 0.0
07/06:00pm 21.7 16.5 7.3 39 7.4 NNW 24 35 13 19 - - 0.0
07/05:30pm 22.0 17.8 7.5 39 7.5 N 19 28 10 15 - - 0.0
07/05:00pm 22.2 18.7 5.3 33 8.4 NNW 13 22 7 12 - - 0.0
07/04:30pm 24.0 20.6 5.9 31 9.2 NW 13 24 7 13 - - 0.0
07/04:00pm 22.8 18.5 5.1 31 8.8 N 17 28 9 15 - - 0.0
07/03:30pm 22.5 18.9 8.2 40 7.5 N 17 28 9 15 - - 0.0
07/03:00pm 21.5 17.6 7.0 39 7.4 N 17 30 9 16 - - 0.0
07/02:30pm 21.4 18.3 7.1 39 7.3 NW 13 22 7 12 - - 0.0
07/02:00pm 21.8 16.7 7.7 40 7.3 NNW 24 37 13 20 - - 0.0
07/01:30pm 21.2 17.6 6.8 39 7.3 WNW 15 20 8 11 - - 0.0
07/01:00pm 20.9 17.7 6.9 40 7.1 NW 13 24 7 13 - - 0.0
07/12:30pm 20.2 17.5 7.2 43 6.6 NNW 11 17 6 9 - - 0.0
07/12:00pm 20.4 17.1 8.0 44 6.4 NW 15 26 8 14 - - 0.0
07/11:30am 19.2 16.4 6.8 44 6.2 WNW 11 22 6 12 - - 0.0
07/11:00am 19.5 16.8 9.1 51 5.5 WNW 13 28 7 15 - - 0.0
07/10:30am 17.4 15.3 8.3 55 4.7 SW 9 15 5 8 - - 0.0
07/10:00am 17.0 14.1 8.0 55 4.6 N 13 32 7 17 - - 0.0
07/09:30am 17.6 13.9 8.1 53 4.8 NNW 17 22 9 12 - - 0.0
07/09:00am 16.7 14.4 7.4 54 4.7 N 9 17 5 9 - - 0.0
07/08:30am 15.8 12.2 6.7 54 4.5 NNW 15 24 8 13 - - 0.0
07/08:00am 13.7 11.8 7.7 67 3.0 N 7 9 4 5 - - 0.0
07/07:30am 12.6 11.3 7.7 72 2.4 SE 4 7 2 4 - - 0.0
07/07:00am 10.8 9.3 8.4 85 1.2 ESE 6 7 3 4 - - 0.0
07/06:30am 9.3 7.6 7.4 88 0.9 SW 6 9 3 5 - - 0.0
07/06:00am 8.3 6.4 6.8 90 0.7 WSW 6 11 3 6 - - 0.0
07/05:30am 7.9 5.3 5.9 87 0.9 SW 9 13 5 7 - - 0.0
07/05:00am 8.0 5.4 6.3 89 0.8 S 9 9 5 5 - - 0.0
07/04:30am 8.3 7.0 6.1 86 1.0 SSE 2 7 1 4 - - 0.0
07/04:00am 8.5 7.2 6.1 85 1.1 NE 2 7 1 4 - - 0.0
07/03:30am 8.7 6.7 6.1 84 1.2 N 6 13 3 7 - - 0.0
07/03:00am 9.4 6.8 6.2 80 1.5 N 9 13 5 7 - - 0.0
07/02:30am 9.8 7.9 6.6 80 1.5 NNE 6 9 3 5 - - 0.0
07/02:00am 10.3 8.4 6.7 78 1.7 SSE 6 9 3 5 - - 0.0
07/01:30am 10.9 7.6 6.2 73 2.2 NNW 13 19 7 10 - - 0.0
07/01:00am 10.8 6.7 6.4 74 2.1 N 17 22 9 12 - - 0.0
07/12:30am 10.7 8.8 6.5 75 2.0 ENE 6 15 3 8 - - 0.0
07/12:00am 10.9 9.0 6.7 75 2.0 N 6 13 3 7 - - 0.0
 
Date/Time
EDT
Temp
°C
App
Temp
°C
Dew
Point
°C
Rel
Hum
%
Delta-T
°C
Wind Press
QNH
hPa
Press
MSL
hPa
Rain since
9am
mm
Dir  Spd
km/h
Gust
km/h
Spd
kts
Gust
kts
06/11:30pm 12.0 9.4 6.3 68 2.7 NNW 9 13 5 7 - - 0.0
06/11:00pm 13.1 10.4 5.5 60 3.6 NW 9 17 5 9 - - 0.0
06/10:30pm 13.2 9.7 5.6 60 3.6 NNW 13 17 7 9 - - 0.0
06/10:00pm 13.5 10.8 5.5 58 3.8 NNW 9 13 5 7 - - 0.0
06/09:30pm 13.6 11.0 5.9 59 3.7 NW 9 13 5 7 - - 0.0
06/09:00pm 13.6 10.6 6.1 60 3.6 NNW 11 13 6 7 - - 0.0
06/08:30pm 14.0 11.4 6.1 59 3.8 N 9 13 5 7 - - 0.0
06/08:00pm 14.8 11.7 5.4 53 4.5 NNW 11 15 6 8 - - 0.0
06/07:30pm 15.5 11.8 4.7 48 5.1 NW 13 26 7 14 - - 0.0
06/07:00pm 16.6 12.9 4.7 45 5.6 WNW 13 20 7 11 - - 0.0
06/06:30pm 16.8 12.2 3.5 41 6.1 WNW 17 28 9 15 - - 0.0
06/06:00pm 18.1 13.2 4.0 39 6.7 NW 19 33 10 18 - - 0.0
06/05:30pm 18.8 14.4 4.8 39 6.7 WNW 17 32 9 17 - - 0.0
06/05:00pm 18.9 14.8 4.4 38 6.9 WNW 15 26 8 14 - - 0.0
06/04:30pm 18.2 13.6 3.6 38 6.8 WNW 17 32 9 17 - - 0.0
06/04:00pm 19.4 15.0 4.6 37 7.1 WSW 17 33 9 18 - - 0.0
06/03:30pm 19.2 14.3 4.0 36 7.2 NW 19 30 10 16 - - 0.0
06/03:00pm 19.4 14.3 4.0 36 7.3 WNW 20 35 11 19 - - 0.0
06/02:30pm 19.0 13.8 3.4 35 7.3 WNW 20 35 11 19 - - 0.0
06/02:00pm 17.8 12.1 3.0 37 6.8 W 22 35 12 19 - - 0.0
06/01:30pm 17.0 12.8 3.8 41 6.1 W 15 24 8 13 - - 0.0
06/01:00pm 17.5 13.2 3.4 39 6.5 N 15 19 8 10 - - 0.0
06/12:30pm 16.4 12.5 3.2 41 6.0 WNW 13 20 7 11 - - 0.0
06/12:00pm 16.3 11.3 3.6 42 5.9 NW 19 26 10 14 - - 0.0
06/11:30am 16.4 12.9 3.5 42 5.9 W 11 19 6 10 - - 0.0
06/11:00am 14.8 12.2 5.9 55 4.3 N 9 11 5 6 - - 0.0
06/10:30am 14.8 12.5 5.6 54 4.4 N 7 9 4 5 - - 0.0
06/10:00am 14.9 12.7 6.0 55 4.3 NE 7 11 4 6 - - 0.0
06/09:30am 13.5 11.3 6.0 60 3.6 N 7 11 4 6 - - 0.0
06/09:00am 13.4 10.0 6.1 61 3.5 NNE 13 17 7 9 - - 0.2
06/08:30am 12.7 9.3 6.0 63 3.2 N 13 15 7 8 - - 0.2
06/08:00am 12.0 9.0 5.9 66 2.9 NNE 11 13 6 7 - - 0.2
06/07:30am 11.4 8.8 6.1 70 2.5 NNE 9 13 5 7 - - 0.2
06/07:00am 10.3 8.3 6.9 79 1.6 NNE 7 7 4 4 - - 0.2
06/06:30am 9.5 7.4 6.7 83 1.3 N 7 9 4 5 - - 0.2
06/06:00am 9.0 6.6 7.1 88 0.9 NNE 9 11 5 6 - - 0.2
06/05:30am 8.6 6.5 6.5 87 1.0 NNW 7 9 4 5 - - 0.2
06/05:00am 8.6 6.7 6.7 88 0.9 NNW 6 11 3 6 - - 0.2
06/04:30am 8.3 7.5 6.4 88 0.9 CALM 0 7 0 4 - - 0.2
06/04:00am 8.0 7.1 6.0 87 0.9 CALM 0 6 0 3 - - 0.2
06/03:30am 7.7 6.9 6.4 91 0.6 CALM 0 0 0 0 - - 0.2
06/03:00am 7.5 5.5 6.4 93 0.5 SW 6 7 3 4 - - 0.2
06/02:30am 7.0 6.1 5.9 93 0.5 CALM 0 0 0 0 - - 0.2
06/02:00am 6.0 3.7 4.9 93 0.5 SSW 6 9 3 5 - - 0.2
06/01:30am 6.2 3.8 5.3 94 0.4 NNE 7 9 4 5 - - 0.2
06/01:00am 6.6 5.5 5.3 91 0.6 CALM 0 0 0 0 - - 0.2
06/12:30am 7.2 6.2 5.7 90 0.7 CALM 0 0 0 0 - - 0.2
06/12:00am 8.1 6.0 5.7 85 1.1 NNE 6 7 3 4 - - 0.2
 
Date/Time
EDT
Temp
°C
App
Temp
°C
Dew
Point
°C
Rel
Hum
%
Delta-T
°C
Wind Press
QNH
hPa
Press
MSL
hPa
Rain since
9am
mm
Dir  Spd
km/h
Gust
km/h
Spd
kts
Gust
kts
05/11:30pm 8.8 6.5 5.8 81 1.4 NE 7 11 4 6 - - 0.2
05/11:00pm 9.7 7.3 5.3 74 2.0 N 7 9 4 5 - - 0.2
05/10:30pm 10.2 8.1 5.7 73 2.1 N 6 7 3 4 - - 0.2
05/10:00pm 11.9 9.3 4.2 59 3.5 NW 7 15 4 8 - - 0.2
05/09:30pm 11.8 8.9 4.9 62 3.2 NW 9 17 5 9 - - 0.2
05/09:00pm 13.0 9.9 3.8 53 4.1 W 9 20 5 11 - - 0.2

Other Formats:

Comma delimited format used in spreadsheet applications
http://www.bom.gov.au/fwo/IDT60801/IDT60801.94964.axf

JavaScript Object Notation format (JSON) in row-major order
http://www.bom.gov.au/fwo/IDT60801/IDT60801.94964.json